createdAt,value
2019-01-11T00:02:15.318Z,19.63
2019-01-11T00:04:56.122Z,21.40
2019-01-11T00:07:37.034Z,15.30
2019-01-11T00:10:17.362Z,13.93
2019-01-11T00:12:58.266Z,14.60
2019-01-11T00:15:39.021Z,15.17
2019-01-11T00:18:20.278Z,17.07
2019-01-11T00:21:01.038Z,14.50
2019-01-11T00:23:41.509Z,13.33
2019-01-11T00:26:22.269Z,12.60
2019-01-11T00:29:03.147Z,12.70
2019-01-11T00:31:44.153Z,9.73
2019-01-11T00:34:24.714Z,12.90
2019-01-11T00:37:05.274Z,11.17
2019-01-11T00:39:46.470Z,14.43
2019-01-11T00:42:26.864Z,10.97
2019-01-11T00:45:08.024Z,14.20
2019-01-11T00:47:49.316Z,11.77
2019-01-11T00:50:30.042Z,11.37
2019-01-11T00:53:11.914Z,11.57
2019-01-11T00:55:52.479Z,12.17
2019-01-11T00:58:33.071Z,11.20
2019-01-11T01:01:13.590Z,9.60
2019-01-11T01:03:54.191Z,7.77
2019-01-11T01:06:34.751Z,8.40
2019-01-11T01:09:15.269Z,12.43
2019-01-11T01:11:55.695Z,10.07
2019-01-11T01:14:36.885Z,7.57
2019-01-11T01:17:17.630Z,10.53
2019-01-11T01:19:58.023Z,9.60
2019-01-11T01:22:38.956Z,7.73
2019-01-11T01:25:19.979Z,7.27
2019-01-11T01:28:01.045Z,7.13
2019-01-11T01:30:41.367Z,7.20
2019-01-11T01:33:22.631Z,7.37
2019-01-11T01:36:03.289Z,9.10
2019-01-11T01:38:44.084Z,6.77
2019-01-11T01:41:24.749Z,7.43
2019-01-11T01:44:05.598Z,7.37
2019-01-11T01:46:46.055Z,7.40
2019-01-11T01:49:26.760Z,6.60
2019-01-11T01:52:07.951Z,6.90
2019-01-11T01:54:48.853Z,6.50
2019-01-11T01:57:29.551Z,7.93
2019-01-11T02:00:10.135Z,5.93
2019-01-11T02:02:51.275Z,5.43
2019-01-11T02:05:31.664Z,5.47
2019-01-11T02:08:12.082Z,5.63
2019-01-11T02:10:52.683Z,7.10
2019-01-11T02:13:33.808Z,5.70
2019-01-11T02:16:14.532Z,5.80
2019-01-11T02:18:55.394Z,4.53
2019-01-11T02:21:36.718Z,5.33
2019-01-11T02:24:17.807Z,4.50
2019-01-11T02:26:58.255Z,5.73
2019-01-11T02:29:38.871Z,5.60
2019-01-11T02:32:19.293Z,5.27
2019-01-11T02:34:59.891Z,4.63
2019-01-11T02:37:40.620Z,4.80
2019-01-11T02:40:22.167Z,6.70
2019-01-11T02:43:02.601Z,4.93
2019-01-11T02:45:43.309Z,6.77
2019-01-11T02:48:23.711Z,5.97
2019-01-11T02:51:04.023Z,5.87
2019-01-11T02:53:44.383Z,5.67
2019-01-11T02:56:25.061Z,6.40
2019-01-11T02:59:05.992Z,8.70
2019-01-11T03:01:46.363Z,6.63
2019-01-11T03:04:27.275Z,6.57
2019-01-11T03:07:07.980Z,15.60
2019-01-11T03:09:48.447Z,5.97
2019-01-11T03:12:28.976Z,7.20
2019-01-11T03:15:09.356Z,7.80
2019-01-11T03:17:50.046Z,6.93
2019-01-11T03:20:30.671Z,7.90
2019-01-11T03:23:11.363Z,7.70
2019-01-11T03:25:52.058Z,7.80
2019-01-11T03:28:32.754Z,8.90
2019-01-11T03:34:11.816Z,9.13
2019-01-11T03:36:52.610Z,8.80
2019-01-11T03:39:33.395Z,8.37
2019-01-11T03:42:14.111Z,7.80
2019-01-11T03:44:55.126Z,8.67
2019-01-11T03:47:35.589Z,8.20
2019-01-11T03:50:16.601Z,6.67
2019-01-11T03:52:57.259Z,8.20
2019-01-11T03:55:37.962Z,8.40
2019-01-11T03:58:18.491Z,7.20
2019-01-11T04:00:59.163Z,7.03
2019-01-11T04:03:40.253Z,7.50
2019-01-11T04:06:20.967Z,6.97
2019-01-11T04:09:01.267Z,7.23
2019-01-11T04:11:41.698Z,6.57
2019-01-11T04:14:22.204Z,6.90
2019-01-11T04:17:02.872Z,5.90
2019-01-11T04:19:31.634Z,5.33
2019-01-11T04:22:39.036Z,5.53
2019-01-11T04:25:10.492Z,5.20
2019-01-11T04:27:58.546Z,5.20
2019-01-11T04:33:53.656Z,4.90
2019-01-11T04:36:41.656Z,4.87
2019-01-11T04:42:38.742Z,3.60
2019-01-11T04:45:26.712Z,5.00
2019-01-11T04:48:14.710Z,5.40
2019-01-11T04:51:02.696Z,4.70
2019-01-11T04:53:50.707Z,5.20
2019-01-11T04:56:31.043Z,3.90
2019-01-11T04:59:11.824Z,4.97
2019-01-11T05:01:52.618Z,6.63
2019-01-11T05:04:33.620Z,4.13
2019-01-11T05:07:14.558Z,4.67
2019-01-11T05:09:55.273Z,4.60
2019-01-11T05:12:35.670Z,3.93
2019-01-11T05:15:16.910Z,5.60
2019-01-11T05:17:57.706Z,4.03
2019-01-11T05:20:38.366Z,3.80
2019-01-11T05:23:20.797Z,3.70
2019-01-11T05:26:01.086Z,4.67
2019-01-11T05:28:42.042Z,4.10
2019-01-11T05:31:22.791Z,3.50
2019-01-11T05:34:03.229Z,3.10
2019-01-11T05:36:43.767Z,4.80
2019-01-11T05:39:24.511Z,4.43
2019-01-11T05:42:05.527Z,5.47
2019-01-11T05:44:46.039Z,10.03
2019-01-11T05:47:26.611Z,5.43
2019-01-11T05:50:07.082Z,4.77
2019-01-11T05:52:47.699Z,5.63
2019-01-11T05:55:47.459Z,3.80
2019-01-11T05:58:32.159Z,3.83
2019-01-11T06:01:13.336Z,6.70
2019-01-11T06:03:53.844Z,6.83
2019-01-11T06:06:53.556Z,6.67
2019-01-11T06:09:34.159Z,3.40
2019-01-11T06:12:14.728Z,3.27
2019-01-11T06:14:55.283Z,2.60
2019-01-11T06:17:35.964Z,2.87
2019-01-11T06:20:16.724Z,2.80
2019-01-11T06:22:57.232Z,2.47
2019-01-11T06:25:38.314Z,3.93
2019-01-11T06:28:19.544Z,4.07
2019-01-11T06:31:00.076Z,3.13
2019-01-11T06:33:40.591Z,3.87
2019-01-11T06:36:21.061Z,3.77
2019-01-11T06:39:01.531Z,3.90
2019-01-11T06:41:47.143Z,4.50
2019-01-11T06:44:28.771Z,4.63
2019-01-11T06:47:10.163Z,5.10
2019-01-11T06:49:51.309Z,5.23
2019-01-11T06:52:31.827Z,4.83
2019-01-11T06:55:12.583Z,6.13
2019-01-11T06:57:53.288Z,5.43
2019-01-11T07:00:33.735Z,6.03
2019-01-11T07:03:14.667Z,7.30
2019-01-11T07:05:55.212Z,7.70
2019-01-11T07:08:35.765Z,7.33
2019-01-11T07:11:16.483Z,6.00
2019-01-11T07:13:56.964Z,5.97
2019-01-11T07:16:37.871Z,7.50
2019-01-11T07:19:18.736Z,7.00
2019-01-11T07:22:00.172Z,7.60
2019-01-11T07:24:40.575Z,6.43
2019-01-11T07:27:21.100Z,7.33
2019-01-11T07:30:01.541Z,5.53
2019-01-11T07:32:42.452Z,5.77
2019-01-11T07:35:25.242Z,4.90
2019-01-11T07:38:06.199Z,5.50
2019-01-11T07:40:47.401Z,5.73
2019-01-11T07:43:27.983Z,5.10
2019-01-11T07:46:08.754Z,4.67
2019-01-11T07:48:49.391Z,4.57
2019-01-11T07:51:30.237Z,4.83
2019-01-11T07:54:10.819Z,6.43
2019-01-11T07:56:52.890Z,4.70
2019-01-11T07:59:33.303Z,5.47
2019-01-11T08:02:14.202Z,6.80
2019-01-11T08:04:54.785Z,5.80
2019-01-11T08:07:35.728Z,7.40
2019-01-11T08:10:16.371Z,7.10
2019-01-11T08:12:57.236Z,5.90
2019-01-11T08:15:38.005Z,7.23
2019-01-11T08:18:18.900Z,6.63
2019-01-11T08:21:00.381Z,5.63
2019-01-11T08:23:41.176Z,8.93
2019-01-11T08:26:21.552Z,6.70
2019-01-11T08:29:02.281Z,9.43
2019-01-11T08:31:42.975Z,6.90
2019-01-11T08:34:23.843Z,7.87
2019-01-11T08:37:05.054Z,7.20
2019-01-11T08:39:34.104Z,7.07
2019-01-11T08:42:22.099Z,7.00
2019-01-11T08:45:29.575Z,8.47
2019-01-11T08:48:17.630Z,6.60
2019-01-11T08:51:05.695Z,7.07
2019-01-11T08:53:53.687Z,7.27
2019-01-11T08:56:34.522Z,7.80
2019-01-11T08:59:15.175Z,16.37
2019-01-11T09:01:56.451Z,8.30
2019-01-11T09:04:37.190Z,9.57
2019-01-11T09:07:17.887Z,8.13
2019-01-11T09:09:58.456Z,8.50
2019-01-11T09:12:39.036Z,9.37
2019-01-11T09:15:19.616Z,8.93
2019-01-11T09:18:19.403Z,8.37
2019-01-11T09:21:00.656Z,19.23
2019-01-11T09:23:41.999Z,7.40
2019-01-11T09:26:23.040Z,8.47
2019-01-11T09:29:04.172Z,8.60
2019-01-11T09:31:44.604Z,10.60
2019-01-11T09:34:25.655Z,12.20
2019-01-11T09:37:06.071Z,10.27
2019-01-11T09:39:46.892Z,11.57
2019-01-11T09:42:27.907Z,12.83
2019-01-11T09:45:09.332Z,11.47
2019-01-11T09:47:49.986Z,9.63
2019-01-11T09:50:30.864Z,10.80
2019-01-11T09:53:12.134Z,10.00
2019-01-11T09:55:52.539Z,9.17
2019-01-11T09:58:32.972Z,14.53
2019-01-11T10:01:14.871Z,11.33
2019-01-11T10:03:55.363Z,10.50
2019-01-11T10:06:39.591Z,14.70
2019-01-11T10:09:20.886Z,12.87
2019-01-11T10:12:01.578Z,15.20
2019-01-11T10:14:42.253Z,11.13
2019-01-11T10:17:22.857Z,15.47
2019-01-11T10:20:03.631Z,14.67
2019-01-11T10:22:43.963Z,12.83
2019-01-11T10:25:24.619Z,15.20
2019-01-11T10:28:05.324Z,10.70
2019-01-11T10:30:46.081Z,9.07
2019-01-11T10:33:26.682Z,15.10
2019-01-11T10:36:07.542Z,10.30
2019-01-11T10:38:48.400Z,11.63
2019-01-11T10:41:29.183Z,15.50
2019-01-11T10:44:10.269Z,13.83
2019-01-11T10:46:51.175Z,7.27
2019-01-11T10:49:32.148Z,11.13
2019-01-11T10:52:13.346Z,10.00
2019-01-11T10:54:54.203Z,10.17
2019-01-11T10:57:35.074Z,10.10
2019-01-11T11:00:15.652Z,9.40
2019-01-11T11:02:56.115Z,9.40
2019-01-11T11:05:36.959Z,12.20
2019-01-11T11:08:17.556Z,9.20
2019-01-11T11:10:58.292Z,11.87
2019-01-11T11:13:39.071Z,14.90
2019-01-11T11:16:19.931Z,9.27
2019-01-11T11:19:00.364Z,9.70
2019-01-11T11:21:40.756Z,13.27
2019-01-11T11:24:21.137Z,10.47
2019-01-11T11:27:01.740Z,9.67
2019-01-11T11:29:42.647Z,4.60
2019-01-11T11:35:32.996Z,5.77
2019-01-11T11:38:13.709Z,6.53
2019-01-11T11:40:54.360Z,6.93
2019-01-11T11:43:34.874Z,8.17
2019-01-11T11:46:15.624Z,5.70
2019-01-11T11:48:56.195Z,5.97
2019-01-11T11:51:41.326Z,5.23
2019-01-11T11:54:19.273Z,5.27
2019-01-11T11:56:59.911Z,5.30
2019-01-11T11:59:40.703Z,5.40
2019-01-11T12:02:21.257Z,7.67
2019-01-11T12:05:02.093Z,6.13
2019-01-11T12:07:43.118Z,5.77
2019-01-11T12:10:23.749Z,6.40
2019-01-11T12:13:04.974Z,13.90
2019-01-11T12:15:46.209Z,9.20
2019-01-11T12:18:27.184Z,7.73
2019-01-11T12:21:08.128Z,6.97
2019-01-11T12:23:48.856Z,6.73
2019-01-11T12:26:29.592Z,5.97
2019-01-11T12:29:10.367Z,7.93
2019-01-11T12:31:51.606Z,6.10
2019-01-11T12:34:32.375Z,7.20
2019-01-11T12:37:12.988Z,6.70
2019-01-11T12:39:53.591Z,5.93
2019-01-11T12:42:34.245Z,6.50
2019-01-11T12:45:14.887Z,6.20
2019-01-11T12:47:55.764Z,6.20
2019-01-11T12:50:36.507Z,8.97
2019-01-11T12:53:17.211Z,4.80
2019-01-11T12:55:57.900Z,3.83
2019-01-11T12:58:38.435Z,4.50
2019-01-11T13:01:19.055Z,5.13
2019-01-11T13:03:59.993Z,3.30
2019-01-11T13:06:40.755Z,4.17
2019-01-11T13:09:21.435Z,4.63
2019-01-11T13:12:01.957Z,3.70
2019-01-11T13:14:43.527Z,3.13
2019-01-11T13:17:24.500Z,3.40
2019-01-11T13:20:05.735Z,3.43
2019-01-11T13:22:46.730Z,2.73
2019-01-11T13:25:32.145Z,3.90
2019-01-11T13:28:09.834Z,3.70
2019-01-11T13:30:50.311Z,3.20
2019-01-11T13:33:31.179Z,4.13
2019-01-11T13:36:17.159Z,3.70
2019-01-11T13:38:57.763Z,5.27
2019-01-11T13:41:38.196Z,4.03
2019-01-11T13:44:18.673Z,4.10
2019-01-11T13:46:59.298Z,3.87
2019-01-11T13:49:39.852Z,4.53
2019-01-11T13:52:20.353Z,4.43
2019-01-11T13:55:00.961Z,4.73
2019-01-11T13:57:41.607Z,3.30
2019-01-11T14:00:22.355Z,5.50
2019-01-11T14:03:03.194Z,3.37
2019-01-11T14:05:44.327Z,4.00
2019-01-11T14:08:24.914Z,4.43
2019-01-11T14:11:05.883Z,3.30
2019-01-11T14:13:46.563Z,3.77
2019-01-11T14:16:27.284Z,3.50
2019-01-11T14:19:08.007Z,3.27
2019-01-11T14:21:48.603Z,3.40
2019-01-11T14:24:29.194Z,2.93
2019-01-11T14:27:09.766Z,3.23
2019-01-11T14:29:50.482Z,3.37
2019-01-11T14:32:31.206Z,3.77
2019-01-11T14:35:12.044Z,4.93
2019-01-11T14:37:53.220Z,4.67
2019-01-11T14:40:33.907Z,4.27
2019-01-11T14:43:14.690Z,4.80
2019-01-11T14:45:55.256Z,7.07
2019-01-11T14:48:36.059Z,5.80
2019-01-11T14:51:16.671Z,6.13
2019-01-11T14:53:57.373Z,4.80
2019-01-11T14:56:38.179Z,5.90
2019-01-11T14:59:19.019Z,9.23
2019-01-11T15:02:00.150Z,5.20
2019-01-11T15:04:40.754Z,6.43
2019-01-11T15:07:21.798Z,4.83
2019-01-11T15:10:02.122Z,6.50
2019-01-11T15:12:43.091Z,7.67
2019-01-11T15:15:23.875Z,6.97
2019-01-11T15:18:04.992Z,10.10
2019-01-11T15:20:45.904Z,6.90
2019-01-11T15:23:26.672Z,7.80
2019-01-11T15:26:07.283Z,7.90
2019-01-11T15:28:48.026Z,5.23
2019-01-11T15:31:28.880Z,5.83
2019-01-11T15:34:09.501Z,5.67
2019-01-11T15:36:50.321Z,5.60
2019-01-11T15:39:31.041Z,4.33
2019-01-11T15:42:11.735Z,4.30
2019-01-11T15:44:52.288Z,5.87
2019-01-11T15:47:32.943Z,4.33
2019-01-11T15:50:13.738Z,5.93
2019-01-11T15:52:54.501Z,5.47
2019-01-11T15:55:35.421Z,4.77
2019-01-11T15:58:15.968Z,5.30
2019-01-11T16:00:57.003Z,5.90
2019-01-11T16:03:37.651Z,5.67
2019-01-11T16:06:18.515Z,7.50
2019-01-11T16:08:59.171Z,5.47
2019-01-11T16:11:39.845Z,6.20
2019-01-11T16:14:20.335Z,7.00
2019-01-11T16:17:00.966Z,7.47
2019-01-11T16:19:41.760Z,6.07
2019-01-11T16:22:22.301Z,6.90
2019-01-11T16:25:02.966Z,7.93
2019-01-11T16:27:44.172Z,8.63
2019-01-11T16:30:24.969Z,8.10
2019-01-11T16:33:05.531Z,7.33
2019-01-11T16:35:46.333Z,7.77
2019-01-11T16:38:27.418Z,9.10
2019-01-11T16:41:08.332Z,8.03
2019-01-11T16:43:48.702Z,8.73
2019-01-11T16:46:29.671Z,8.30
2019-01-11T16:49:10.639Z,10.13
2019-01-11T16:51:49.910Z,8.00
2019-01-11T16:54:37.928Z,8.73
2019-01-11T16:57:18.500Z,7.43
2019-01-11T16:59:58.952Z,7.40
2019-01-11T17:02:39.910Z,9.13
2019-01-11T17:05:21.175Z,6.63
2019-01-11T17:08:01.772Z,6.50
2019-01-11T17:10:44.159Z,6.77
2019-01-11T17:13:25.402Z,8.43
2019-01-11T17:16:06.135Z,11.27
2019-01-11T17:18:47.052Z,12.17
2019-01-11T17:21:27.522Z,7.93
2019-01-11T17:24:07.979Z,5.30
2019-01-11T17:26:48.528Z,6.17
2019-01-11T17:29:29.119Z,4.50
2019-01-11T17:32:09.525Z,7.47
2019-01-11T17:34:50.217Z,4.80
2019-01-11T17:37:31.115Z,6.80
2019-01-11T17:40:12.042Z,7.70
2019-01-11T17:42:53.339Z,6.10
2019-01-11T17:45:34.831Z,5.40
2019-01-11T17:48:15.899Z,10.30
2019-01-11T17:50:57.161Z,7.27
2019-01-11T17:53:38.681Z,4.37
2019-01-11T17:56:19.048Z,7.90
2019-01-11T17:58:59.831Z,5.83
2019-01-11T18:01:40.662Z,4.83
2019-01-11T18:04:21.456Z,7.27
2019-01-11T18:07:02.200Z,4.80
2019-01-11T18:09:43.288Z,4.60
2019-01-11T18:12:23.711Z,7.30
2019-01-11T18:15:04.965Z,9.23
2019-01-11T18:17:46.144Z,6.60
2019-01-11T18:20:27.006Z,6.20
2019-01-11T18:23:08.169Z,8.70
2019-01-11T18:25:48.607Z,8.07
2019-01-11T18:28:29.288Z,5.53
2019-01-11T18:31:09.572Z,9.57
2019-01-11T18:33:50.289Z,14.23
2019-01-11T18:36:30.972Z,15.50
2019-01-11T18:39:11.587Z,9.77
2019-01-11T18:41:52.642Z,13.50
2019-01-11T18:44:33.747Z,11.83
2019-01-11T18:47:14.352Z,12.10
2019-01-11T18:49:55.098Z,7.63
2019-01-11T18:52:35.858Z,13.00
2019-01-11T18:55:16.637Z,7.50
2019-01-11T18:57:57.462Z,9.03
2019-01-11T19:00:26.318Z,11.20
2019-01-11T19:03:14.726Z,12.43
2019-01-11T19:06:03.103Z,9.00
2019-01-11T19:08:51.103Z,10.40
2019-01-11T19:11:39.391Z,8.80
2019-01-11T19:14:27.391Z,15.60
2019-01-11T19:17:15.375Z,8.17
2019-01-11T19:20:04.773Z,14.83
2019-01-11T19:22:52.839Z,13.30
2019-01-11T19:25:40.831Z,13.57
2019-01-11T19:28:28.823Z,13.20
2019-01-11T19:31:16.816Z,13.03
2019-01-11T19:34:04.883Z,13.20
2019-01-11T19:36:52.866Z,13.67
2019-01-11T19:39:41.131Z,13.27
2019-01-11T19:42:29.116Z,15.57
2019-01-11T19:45:17.278Z,14.67
2019-01-11T19:48:05.340Z,11.53
2019-01-11T19:50:53.352Z,16.83
2019-01-11T19:53:41.355Z,15.77
2019-01-11T19:56:29.756Z,15.47
2019-01-11T19:59:17.778Z,11.70
2019-01-11T20:02:05.826Z,12.43
2019-01-11T20:04:53.827Z,20.70
2019-01-11T20:07:41.991Z,17.20
2019-01-11T20:13:45.382Z,17.57
2019-01-11T20:16:33.364Z,14.00
2019-01-11T20:19:21.363Z,19.80
2019-01-11T20:22:09.451Z,17.60
2019-01-11T20:24:58.129Z,22.20
2019-01-11T20:27:46.205Z,21.57
2019-01-11T20:30:34.202Z,19.27
2019-01-11T20:33:22.182Z,20.77
2019-01-11T20:39:12.677Z,20.10
2019-01-11T20:42:00.924Z,20.00
2019-01-11T20:44:48.948Z,17.70
2019-01-11T20:47:36.931Z,24.20
2019-01-11T20:50:25.522Z,28.40
2019-01-11T20:53:13.516Z,26.73
2019-01-11T20:56:01.860Z,14.23
2019-01-11T20:58:42.589Z,12.57
2019-01-11T21:01:23.062Z,19.63
2019-01-11T21:04:04.088Z,25.43
2019-01-11T21:06:44.474Z,28.20
2019-01-11T21:09:26.925Z,17.23
2019-01-11T21:12:07.929Z,21.50
2019-01-11T21:14:48.534Z,23.43
2019-01-11T21:17:29.295Z,24.63
2019-01-11T21:20:09.761Z,17.97
2019-01-11T21:22:50.327Z,27.43
2019-01-11T21:25:31.264Z,21.80
2019-01-11T21:28:11.830Z,32.90
2019-01-11T21:30:57.338Z,17.67
2019-01-11T21:33:35.343Z,21.53
2019-01-11T21:36:16.085Z,21.70
2019-01-11T21:38:56.688Z,19.07
2019-01-11T21:41:37.471Z,29.43
2019-01-11T21:44:19.545Z,20.07
2019-01-11T21:47:00.335Z,22.47
2019-01-11T21:49:40.862Z,22.53
2019-01-11T21:52:21.745Z,23.87
2019-01-11T21:55:02.328Z,28.93
2019-01-11T21:57:42.972Z,29.10
2019-01-11T22:00:23.812Z,24.43
2019-01-11T22:03:04.792Z,24.90
2019-01-11T22:05:46.009Z,30.80
2019-01-11T22:08:26.374Z,24.43
2019-01-11T22:11:07.039Z,20.07
2019-01-11T22:13:48.148Z,29.17
2019-01-11T22:16:28.651Z,18.30
2019-01-11T22:19:09.507Z,28.93
2019-01-11T22:21:50.071Z,24.83
2019-01-11T22:24:30.917Z,21.90
2019-01-11T22:27:11.680Z,29.87
2019-01-11T22:29:52.246Z,19.20
2019-01-11T22:32:33.049Z,24.17
2019-01-11T22:35:14.062Z,32.03
2019-01-11T22:37:54.443Z,32.20
2019-01-11T22:40:35.390Z,31.20
2019-01-11T22:43:16.647Z,35.23
2019-01-11T22:45:57.232Z,33.33
2019-01-11T22:48:38.367Z,24.43
2019-01-11T22:51:19.439Z,26.63
2019-01-11T22:54:00.219Z,25.23
2019-01-11T22:56:40.954Z,32.20
2019-01-11T22:59:21.507Z,46.33
2019-01-11T23:02:02.153Z,24.70
2019-01-11T23:04:42.811Z,30.90
2019-01-11T23:07:23.357Z,26.90
2019-01-11T23:10:04.171Z,26.90
2019-01-11T23:12:45.478Z,26.90
2019-01-11T23:15:25.876Z,31.70
2019-01-11T23:18:06.455Z,25.23
2019-01-11T23:20:46.822Z,33.70
2019-01-11T23:23:27.343Z,34.50
2019-01-11T23:26:07.941Z,35.53
2019-01-11T23:28:48.511Z,30.27
2019-01-11T23:31:29.371Z,28.33
2019-01-11T23:34:10.158Z,39.83
2019-01-11T23:36:51.139Z,29.93
2019-01-11T23:39:32.022Z,38.43
2019-01-11T23:42:13.120Z,31.17
2019-01-11T23:44:53.439Z,27.23
2019-01-11T23:47:34.017Z,27.30
2019-01-11T23:50:14.947Z,26.40
2019-01-11T23:52:55.449Z,28.53
2019-01-11T23:55:36.283Z,28.07
2019-01-11T23:58:17.008Z,30.77
